createdAt,value
2022-09-06T00:00:27.820Z,1.40
2022-09-06T00:02:56.046Z,1.67
2022-09-06T00:05:24.158Z,1.40
2022-09-06T00:07:52.201Z,1.83
2022-09-06T00:10:20.382Z,1.63
2022-09-06T00:12:48.397Z,1.10
2022-09-06T00:15:17.881Z,1.60
2022-09-06T00:17:45.897Z,1.33
2022-09-06T00:20:14.264Z,1.50
2022-09-06T00:22:42.260Z,1.47
2022-09-06T00:25:11.406Z,3.17
2022-09-06T00:27:39.430Z,1.40
2022-09-06T00:30:08.462Z,3.43
2022-09-06T00:32:37.882Z,1.43
2022-09-06T00:35:06.920Z,3.37
2022-09-06T00:37:34.874Z,3.50
2022-09-06T00:40:03.301Z,1.20
2022-09-06T00:42:31.430Z,2.30
2022-09-06T00:44:59.530Z,1.53
2022-09-06T00:47:28.251Z,1.47
2022-09-06T00:49:59.902Z,1.60
2022-09-06T00:52:29.754Z,1.30
2022-09-06T00:54:58.199Z,1.40
2022-09-06T00:57:27.273Z,2.07
2022-09-06T00:59:56.822Z,2.10
2022-09-06T01:02:24.926Z,1.40
2022-09-06T01:04:53.385Z,1.40
2022-09-06T01:07:36.415Z,2.80
2022-09-06T01:10:30.217Z,1.70
2022-09-06T01:13:05.657Z,2.53
2022-09-06T01:15:42.363Z,1.60
2022-09-06T01:18:20.949Z,1.60
2022-09-06T01:21:14.690Z,2.17
2022-09-06T01:24:04.365Z,1.23
2022-09-06T01:27:10.874Z,1.40
2022-09-06T01:29:46.479Z,1.60
2022-09-06T01:32:21.675Z,3.43
2022-09-06T01:34:55.224Z,1.87
2022-09-06T01:37:24.893Z,2.60
2022-09-06T01:39:52.955Z,1.73
2022-09-06T01:42:24.269Z,1.60
2022-09-06T01:44:57.203Z,1.83
2022-09-06T01:47:44.202Z,1.97
2022-09-06T01:50:40.492Z,1.50
2022-09-06T01:53:22.344Z,1.50
2022-09-06T01:55:56.733Z,3.13
2022-09-06T01:58:49.236Z,2.33
2022-09-06T02:01:27.133Z,2.20
2022-09-06T02:04:02.897Z,1.93
2022-09-06T02:06:33.985Z,2.00
2022-09-06T02:09:06.701Z,2.67
2022-09-06T02:11:41.059Z,2.27
2022-09-06T02:14:14.029Z,2.20
2022-09-06T02:16:46.868Z,1.87
2022-09-06T02:19:19.317Z,2.10
2022-09-06T02:21:51.373Z,1.53
2022-09-06T02:24:24.001Z,1.27
2022-09-06T02:26:52.552Z,1.60
2022-09-06T02:29:20.918Z,1.50
2022-09-06T02:31:54.946Z,1.70
2022-09-06T02:34:23.569Z,2.13
2022-09-06T02:36:51.984Z,1.70
2022-09-06T02:39:20.022Z,2.73
2022-09-06T02:41:49.048Z,2.77
2022-09-06T02:44:17.106Z,2.70
2022-09-06T02:46:45.135Z,1.80
2022-09-06T02:49:14.525Z,3.90
2022-09-06T02:51:42.564Z,2.53
2022-09-06T02:54:10.576Z,3.40
2022-09-06T02:56:38.491Z,5.00
2022-09-06T02:59:06.565Z,10.43
2022-09-06T03:01:35.043Z,7.30
2022-09-06T03:04:03.636Z,9.00
2022-09-06T03:06:33.019Z,11.27
2022-09-06T03:09:01.099Z,16.87
2022-09-06T03:11:29.435Z,13.30
2022-09-06T03:13:57.480Z,10.87
2022-09-06T03:16:25.601Z,13.50
2022-09-06T03:18:53.671Z,10.97
2022-09-06T03:21:21.664Z,11.17
2022-09-06T03:23:51.019Z,13.00
2022-09-06T03:26:19.075Z,16.37
2022-09-06T03:28:47.247Z,12.33
2022-09-06T03:31:15.248Z,10.93
2022-09-06T03:33:43.347Z,10.97
2022-09-06T03:36:11.555Z,10.27
2022-09-06T03:38:40.059Z,10.90
2022-09-06T03:41:09.460Z,11.97
2022-09-06T03:43:37.579Z,8.63
2022-09-06T03:46:05.689Z,7.37
2022-09-06T03:48:33.675Z,6.33
2022-09-06T03:51:01.655Z,5.97
2022-09-06T03:53:30.855Z,5.00
2022-09-06T03:55:59.194Z,2.93
2022-09-06T03:58:32.061Z,3.03
2022-09-06T04:01:05.657Z,3.67
2022-09-06T04:03:34.611Z,3.40
2022-09-06T04:06:02.840Z,3.70
2022-09-06T04:08:31.138Z,4.23
2022-09-06T04:11:00.314Z,4.33
2022-09-06T04:13:30.694Z,6.00
2022-09-06T04:15:58.971Z,6.07
2022-09-06T04:18:27.553Z,6.40
2022-09-06T04:20:56.980Z,5.27
2022-09-06T04:23:26.162Z,5.77
2022-09-06T04:25:56.054Z,6.83
2022-09-06T04:28:26.486Z,3.70
2022-09-06T04:31:00.801Z,8.73
2022-09-06T04:33:32.624Z,3.67
2022-09-06T04:36:02.483Z,3.50
2022-09-06T04:38:33.206Z,3.17
2022-09-06T04:41:01.161Z,5.73
2022-09-06T04:43:29.238Z,3.27
2022-09-06T04:46:04.606Z,5.37
2022-09-06T04:48:32.777Z,3.50
2022-09-06T04:51:00.722Z,3.37
2022-09-06T04:53:28.754Z,4.67
2022-09-06T04:55:58.567Z,2.97
2022-09-06T04:58:26.837Z,3.57
2022-09-06T05:00:54.971Z,4.67
2022-09-06T05:03:24.278Z,3.73
2022-09-06T05:05:52.286Z,4.33
2022-09-06T05:08:20.231Z,2.97
2022-09-06T05:10:51.991Z,7.03
2022-09-06T05:13:19.942Z,4.03
2022-09-06T05:15:47.878Z,3.30
2022-09-06T05:18:16.303Z,4.17
2022-09-06T05:20:51.996Z,2.97
2022-09-06T05:23:20.101Z,2.30
2022-09-06T05:25:48.330Z,2.77
2022-09-06T05:28:16.670Z,2.20
2022-09-06T05:30:45.405Z,2.27
2022-09-06T05:33:15.354Z,3.30
2022-09-06T05:35:43.365Z,3.13
2022-09-06T05:38:12.685Z,3.77
2022-09-06T05:40:40.685Z,2.60
2022-09-06T05:43:08.677Z,2.97
2022-09-06T05:45:36.772Z,2.10
2022-09-06T05:48:04.933Z,3.27
2022-09-06T05:50:33.101Z,3.97
2022-09-06T05:53:01.269Z,1.90
2022-09-06T05:55:30.597Z,4.60
2022-09-06T05:57:58.637Z,2.10
2022-09-06T06:00:26.621Z,2.97
2022-09-06T06:02:54.592Z,2.73
2022-09-06T06:05:22.657Z,1.90
2022-09-06T06:07:50.693Z,3.00
2022-09-06T06:10:18.858Z,3.57
2022-09-06T06:12:48.182Z,2.13
2022-09-06T06:15:16.225Z,2.17
2022-09-06T06:17:44.417Z,2.83
2022-09-06T06:20:12.401Z,3.13
2022-09-06T06:22:40.365Z,2.63
2022-09-06T06:25:08.993Z,2.00
2022-09-06T06:27:37.934Z,4.17
2022-09-06T06:30:08.657Z,2.67
2022-09-06T06:32:36.646Z,4.97
2022-09-06T06:35:05.001Z,3.50
2022-09-06T06:37:34.221Z,2.10
2022-09-06T06:40:02.275Z,2.73
2022-09-06T06:42:30.455Z,6.80
2022-09-06T06:44:58.480Z,1.77
2022-09-06T06:47:27.753Z,3.63
2022-09-06T06:49:55.752Z,1.70
2022-09-06T06:52:24.422Z,3.00
2022-09-06T06:54:52.576Z,4.37
2022-09-06T06:57:20.534Z,2.10
2022-09-06T06:59:48.492Z,2.27
2022-09-06T07:02:17.861Z,2.70
2022-09-06T07:04:47.276Z,3.73
2022-09-06T07:07:32.853Z,2.73
2022-09-06T07:12:51.856Z,2.10
2022-09-06T07:15:20.137Z,2.47
2022-09-06T07:17:48.140Z,2.30
2022-09-06T07:20:17.702Z,2.37
2022-09-06T07:22:45.724Z,2.10
2022-09-06T07:25:20.526Z,2.13
2022-09-06T07:27:50.116Z,4.33
2022-09-06T07:30:19.617Z,2.03
2022-09-06T07:32:47.685Z,2.63
2022-09-06T07:35:17.327Z,2.40
2022-09-06T07:37:52.302Z,1.90
2022-09-06T07:40:20.526Z,5.10
2022-09-06T07:42:48.556Z,3.27
2022-09-06T07:45:16.874Z,3.50
2022-09-06T07:48:00.190Z,1.97
2022-09-06T07:50:47.283Z,2.37
2022-09-06T07:53:24.790Z,2.57
2022-09-06T07:55:58.545Z,2.10
2022-09-06T07:58:26.637Z,3.57
2022-09-06T08:00:54.705Z,2.37
2022-09-06T08:03:22.857Z,2.63
2022-09-06T08:11:25.039Z,2.17
2022-09-06T08:13:54.747Z,2.20
2022-09-06T08:16:23.340Z,3.83
2022-09-06T08:18:52.812Z,1.83
2022-09-06T08:21:23.863Z,2.30
2022-09-06T08:23:53.530Z,2.20
2022-09-06T08:26:23.123Z,1.77
2022-09-06T08:28:54.855Z,3.00
2022-09-06T08:31:23.337Z,1.67
2022-09-06T08:33:52.341Z,3.20
2022-09-06T08:36:22.451Z,2.60
2022-09-06T08:38:50.438Z,1.87
2022-09-06T08:41:26.122Z,2.27
2022-09-06T08:46:52.087Z,1.47
2022-09-06T08:49:20.359Z,1.60
2022-09-06T08:52:15.127Z,2.20
2022-09-06T08:54:49.770Z,1.83
2022-09-06T08:57:40.270Z,2.33
2022-09-06T09:00:11.849Z,1.70
2022-09-06T09:02:45.170Z,3.90
2022-09-06T09:05:27.034Z,1.73
2022-09-06T09:08:04.378Z,3.20
2022-09-06T09:10:39.594Z,1.40
2022-09-06T09:13:10.868Z,1.60
2022-09-06T09:15:40.600Z,1.57
2022-09-06T09:18:09.142Z,1.40
2022-09-06T09:20:38.982Z,1.97
2022-09-06T09:23:08.338Z,1.30
2022-09-06T09:25:37.226Z,1.97
2022-09-06T09:28:16.482Z,1.53
2022-09-06T09:30:50.986Z,1.60
2022-09-06T09:33:30.081Z,1.70
2022-09-06T09:36:00.636Z,2.33
2022-09-06T09:38:32.622Z,1.63
2022-09-06T09:41:03.793Z,1.40
2022-09-06T09:43:32.877Z,1.97
2022-09-06T09:46:32.996Z,1.50
2022-09-06T09:49:06.942Z,2.43
2022-09-06T09:51:36.696Z,1.33
2022-09-06T09:54:08.571Z,2.70
2022-09-06T09:56:47.051Z,4.30
2022-09-06T09:59:24.757Z,2.80
2022-09-06T10:01:55.958Z,2.60
2022-09-06T10:04:46.979Z,2.17
2022-09-06T10:07:17.870Z,2.30
2022-09-06T10:09:49.066Z,1.25
2022-09-06T10:12:20.032Z,0.80
2022-09-06T10:14:49.428Z,1.92
2022-09-06T10:17:28.779Z,0.80
2022-09-06T10:19:56.948Z,1.25
2022-09-06T10:22:29.604Z,0.75
2022-09-06T10:25:49.114Z,2.05
2022-09-06T10:28:38.987Z,1.08
2022-09-06T10:31:26.841Z,1.05
2022-09-06T10:34:04.353Z,1.55
2022-09-06T10:36:36.753Z,1.02
2022-09-06T10:39:07.770Z,1.00
2022-09-06T10:41:59.581Z,2.28
2022-09-06T10:44:43.284Z,1.33
2022-09-06T10:47:13.280Z,0.90
2022-09-06T10:49:45.923Z,1.85
2022-09-06T10:52:19.396Z,1.13
2022-09-06T10:54:47.916Z,2.10
2022-09-06T11:00:14.640Z,1.00
2022-09-06T11:02:49.442Z,1.85
2022-09-06T11:05:42.384Z,1.08
2022-09-06T11:11:11.363Z,2.50
2022-09-06T11:13:39.644Z,1.00
2022-09-06T11:16:14.925Z,1.15
2022-09-06T11:18:46.589Z,1.88
2022-09-06T11:21:40.592Z,3.03
2022-09-06T11:24:13.697Z,7.15
2022-09-06T11:26:46.871Z,0.85
2022-09-06T11:29:22.247Z,1.38
2022-09-06T11:34:45.738Z,0.75
2022-09-06T11:37:28.781Z,1.85
2022-09-06T11:40:29.185Z,1.00
2022-09-06T11:43:19.271Z,2.42
2022-09-06T11:45:49.858Z,1.02
2022-09-06T11:48:44.691Z,0.82
2022-09-06T11:51:12.746Z,0.93
2022-09-06T11:54:05.763Z,0.98
2022-09-06T11:56:40.795Z,0.93
2022-09-06T11:59:24.078Z,1.60
2022-09-06T12:02:02.404Z,3.58
2022-09-06T12:05:13.110Z,0.88
2022-09-06T12:08:21.162Z,1.75
2022-09-06T12:10:57.738Z,3.08
2022-09-06T12:13:54.385Z,2.88
2022-09-06T12:16:24.109Z,3.17
2022-09-06T12:19:02.658Z,1.33
2022-09-06T12:21:52.140Z,1.42
2022-09-06T12:24:52.554Z,0.90
2022-09-06T12:27:23.399Z,2.20
2022-09-06T12:30:01.963Z,1.25
2022-09-06T12:32:37.061Z,1.05
2022-09-06T12:37:57.341Z,1.40
2022-09-06T12:40:26.990Z,3.10
2022-09-06T12:42:56.959Z,1.27
2022-09-06T12:45:27.633Z,4.28
2022-09-06T12:48:06.971Z,1.35
2022-09-06T12:50:35.063Z,1.55
2022-09-06T12:53:04.458Z,1.02
2022-09-06T12:55:35.401Z,2.60
2022-09-06T12:58:07.101Z,0.93
2022-09-06T13:00:39.509Z,1.45
2022-09-06T13:03:18.565Z,1.27
2022-09-06T13:05:47.177Z,1.27
2022-09-06T13:08:18.593Z,0.70
2022-09-06T13:10:48.401Z,0.82
2022-09-06T13:13:23.517Z,0.70
2022-09-06T13:15:52.882Z,2.10
2022-09-06T13:18:27.391Z,1.60
2022-09-06T13:21:00.585Z,1.17
2022-09-06T13:23:29.038Z,1.60
2022-09-06T13:25:57.949Z,1.52
2022-09-06T13:28:29.170Z,1.10
2022-09-06T13:31:06.344Z,2.83
2022-09-06T13:33:36.276Z,1.38
2022-09-06T13:36:17.251Z,0.90
2022-09-06T13:38:46.581Z,4.50
2022-09-06T13:41:38.181Z,1.27
2022-09-06T13:44:17.527Z,1.05
2022-09-06T13:46:45.592Z,1.70
2022-09-06T13:49:13.708Z,1.77
2022-09-06T13:51:43.743Z,2.38
2022-09-06T13:54:14.139Z,1.30
2022-09-06T13:56:44.625Z,1.35
2022-09-06T13:59:14.185Z,0.88
2022-09-06T14:01:45.535Z,0.82
2022-09-06T14:04:15.879Z,2.45
2022-09-06T14:06:43.890Z,1.20
2022-09-06T14:09:12.012Z,1.42
2022-09-06T14:11:40.909Z,1.15
2022-09-06T14:14:10.975Z,0.95
2022-09-06T14:16:40.443Z,2.15
2022-09-06T14:19:08.534Z,0.88
2022-09-06T14:21:36.850Z,1.98
2022-09-06T14:24:05.402Z,4.72
2022-09-06T14:26:34.138Z,3.50
2022-09-06T14:29:02.423Z,4.07
2022-09-06T14:31:32.517Z,2.88
2022-09-06T14:34:04.117Z,1.20
2022-09-06T14:36:34.601Z,2.22
2022-09-06T14:39:03.210Z,1.30
2022-09-06T14:41:31.314Z,1.55
2022-09-06T14:44:00.318Z,1.50
2022-09-06T14:46:29.797Z,1.60
2022-09-06T14:48:59.123Z,1.45
2022-09-06T14:51:28.831Z,2.20
2022-09-06T14:53:59.140Z,0.90
2022-09-06T14:56:27.218Z,0.98
2022-09-06T14:58:57.402Z,1.75
2022-09-06T15:01:28.579Z,1.73
2022-09-06T15:03:59.613Z,5.35
2022-09-06T15:06:29.198Z,2.85
2022-09-06T15:08:59.460Z,0.60
2022-09-06T15:11:34.443Z,3.38
2022-09-06T15:14:04.014Z,0.93
2022-09-06T15:16:32.729Z,0.82
2022-09-06T15:19:02.285Z,1.20
2022-09-06T15:21:33.000Z,1.00
2022-09-06T15:24:02.529Z,0.80
2022-09-06T15:26:31.482Z,1.05
2022-09-06T15:28:59.422Z,1.85
2022-09-06T15:31:27.522Z,2.08
2022-09-06T15:33:55.875Z,1.08
2022-09-06T15:36:24.080Z,1.63
2022-09-06T15:38:54.279Z,1.45
2022-09-06T15:41:25.324Z,1.55
2022-09-06T15:43:56.682Z,0.93
2022-09-06T15:46:43.666Z,1.85
2022-09-06T15:49:13.629Z,3.17
2022-09-06T15:51:42.161Z,1.27
2022-09-06T15:54:13.138Z,1.40
2022-09-06T15:56:40.354Z,4.90
2022-09-06T15:59:08.370Z,1.38
2022-09-06T16:01:36.932Z,1.27
2022-09-06T16:04:06.721Z,2.58
2022-09-06T16:06:37.644Z,1.77
2022-09-06T16:09:07.813Z,2.33
2022-09-06T16:11:37.929Z,7.70
2022-09-06T16:14:06.868Z,3.50
2022-09-06T16:16:35.906Z,1.95
2022-09-06T16:19:04.747Z,2.70
2022-09-06T16:21:34.477Z,1.23
2022-09-06T16:24:04.142Z,1.40
2022-09-06T16:26:34.221Z,2.75
2022-09-06T16:29:04.274Z,1.23
2022-09-06T16:31:37.748Z,2.17
2022-09-06T16:34:08.316Z,1.38
2022-09-06T16:36:36.707Z,1.00
2022-09-06T16:39:05.123Z,1.02
2022-09-06T16:41:37.529Z,2.20
2022-09-06T16:44:06.952Z,3.25
2022-09-06T16:46:34.916Z,1.50
2022-09-06T16:49:04.540Z,1.15
2022-09-06T16:51:32.844Z,0.95
2022-09-06T16:54:01.800Z,0.73
2022-09-06T16:56:33.355Z,1.00
2022-09-06T16:59:03.152Z,2.45
2022-09-06T17:01:33.574Z,1.52
2022-09-06T17:04:02.503Z,1.25
2022-09-06T17:06:31.098Z,7.95
2022-09-06T17:08:59.880Z,1.65
2022-09-06T17:11:28.860Z,4.90
2022-09-06T17:13:58.360Z,1.10
2022-09-06T17:16:44.418Z,5.18
2022-09-06T17:19:13.971Z,1.77
2022-09-06T17:21:42.511Z,5.32
2022-09-06T17:24:10.971Z,2.00
2022-09-06T17:26:40.219Z,2.22
2022-09-06T17:29:09.031Z,2.53
2022-09-06T17:31:37.927Z,1.38
2022-09-06T17:34:07.714Z,2.00
2022-09-06T17:36:37.684Z,2.35
2022-09-06T17:39:07.778Z,4.93
2022-09-06T17:41:38.626Z,1.00
2022-09-06T17:44:07.966Z,3.20
2022-09-06T17:46:36.319Z,1.83
2022-09-06T17:49:06.067Z,2.35
2022-09-06T17:51:37.127Z,7.72
2022-09-06T17:54:05.963Z,3.53
2022-09-06T17:56:34.743Z,5.60
2022-09-06T17:59:04.867Z,8.75
2022-09-06T18:01:36.366Z,4.28
2022-09-06T18:04:06.855Z,8.10
2022-09-06T18:06:38.375Z,3.87
2022-09-06T18:09:09.561Z,7.93
2022-09-06T18:11:39.751Z,5.97
2022-09-06T18:14:09.942Z,7.27
2022-09-06T18:16:39.998Z,4.17
2022-09-06T18:19:09.723Z,3.33
2022-09-06T18:21:41.025Z,6.63
2022-09-06T18:24:10.008Z,5.55
2022-09-06T18:26:38.383Z,3.70
2022-09-06T18:29:11.551Z,5.23
2022-09-06T18:31:40.145Z,4.37
2022-09-06T18:34:08.823Z,3.43
2022-09-06T18:36:38.367Z,4.10
2022-09-06T18:39:06.966Z,3.50
2022-09-06T18:41:53.027Z,6.03
2022-09-06T18:44:21.600Z,3.03
2022-09-06T18:46:49.774Z,6.07
2022-09-06T18:49:18.388Z,5.60
2022-09-06T18:51:47.736Z,4.03
2022-09-06T18:54:15.982Z,3.37
2022-09-06T18:56:44.794Z,3.23
2022-09-06T18:59:14.028Z,3.07
2022-09-06T19:01:42.924Z,6.63
2022-09-06T19:04:11.893Z,5.57
2022-09-06T19:06:41.585Z,5.53
2022-09-06T19:09:12.756Z,5.87
2022-09-06T19:11:43.438Z,5.63
2022-09-06T19:14:11.661Z,12.47
2022-09-06T19:16:39.698Z,6.17
2022-09-06T19:19:09.804Z,4.37
2022-09-06T19:21:41.779Z,4.63
2022-09-06T19:24:14.621Z,6.10
2022-09-06T19:26:44.497Z,4.40
2022-09-06T19:29:14.764Z,4.63
2022-09-06T19:31:45.243Z,4.40
2022-09-06T19:34:15.500Z,3.77
2022-09-06T19:36:44.862Z,4.50
2022-09-06T19:39:16.835Z,4.30
2022-09-06T19:42:00.625Z,4.23
2022-09-06T19:44:29.003Z,4.00
2022-09-06T19:46:57.064Z,3.80
2022-09-06T19:49:25.045Z,3.40
2022-09-06T19:51:53.197Z,6.20
2022-09-06T19:54:22.605Z,6.47
2022-09-06T19:56:50.633Z,5.07
2022-09-06T19:59:18.789Z,3.87
2022-09-06T20:01:47.750Z,3.93
2022-09-06T20:04:16.185Z,3.73
2022-09-06T20:06:44.397Z,5.33
2022-09-06T20:09:12.969Z,8.77
2022-09-06T20:11:42.979Z,9.70
2022-09-06T20:14:13.125Z,8.30
2022-09-06T20:16:42.456Z,11.27
2022-09-06T20:19:12.037Z,11.27
2022-09-06T20:21:40.239Z,3.90
2022-09-06T20:24:08.505Z,9.53
2022-09-06T20:26:36.717Z,7.40
2022-09-06T20:29:06.705Z,9.30
2022-09-06T20:31:36.452Z,9.97
2022-09-06T20:34:05.536Z,6.30
2022-09-06T20:36:33.775Z,10.83
2022-09-06T20:39:02.111Z,5.30
2022-09-06T20:41:30.424Z,9.43
2022-09-06T20:44:00.046Z,5.37
2022-09-06T20:46:31.057Z,7.93
2022-09-06T20:49:04.178Z,11.07
2022-09-06T20:51:33.693Z,8.43
2022-09-06T20:54:03.051Z,6.30
2022-09-06T20:56:33.267Z,14.17
2022-09-06T20:59:04.125Z,11.00
2022-09-06T21:01:35.825Z,15.23
2022-09-06T21:04:05.699Z,13.47
2022-09-06T21:06:35.576Z,13.67
2022-09-06T21:09:04.561Z,11.10
2022-09-06T21:11:33.211Z,14.47
2022-09-06T21:14:01.521Z,13.60
2022-09-06T21:16:30.849Z,15.73
2022-09-06T21:19:01.897Z,16.50
2022-09-06T21:21:31.322Z,15.83
2022-09-06T21:24:00.916Z,17.30
2022-09-06T21:26:29.021Z,19.93
2022-09-06T21:28:57.109Z,20.43
2022-09-06T21:31:26.488Z,16.73
2022-09-06T21:33:56.405Z,19.43
2022-09-06T21:36:29.321Z,24.00
2022-09-06T21:38:59.122Z,22.17
2022-09-06T21:41:28.353Z,21.47
2022-09-06T21:43:58.228Z,22.60
2022-09-06T21:46:32.674Z,19.03
2022-09-06T21:49:03.975Z,16.30
2022-09-06T21:51:33.909Z,23.20
2022-09-06T21:54:04.323Z,16.50
2022-09-06T21:56:33.990Z,17.90
2022-09-06T21:59:02.276Z,16.50
2022-09-06T22:01:33.124Z,17.50
2022-09-06T22:04:02.345Z,11.13
2022-09-06T22:06:32.418Z,10.47
2022-09-06T22:09:05.384Z,13.67
2022-09-06T22:11:35.647Z,13.23
2022-09-06T22:14:05.433Z,11.93
2022-09-06T22:16:35.541Z,11.77
2022-09-06T22:19:04.968Z,9.13
2022-09-06T22:21:33.885Z,14.97
2022-09-06T22:24:05.187Z,12.27
2022-09-06T22:26:35.007Z,9.57
2022-09-06T22:29:05.029Z,10.10
2022-09-06T22:31:34.328Z,8.33
2022-09-06T22:34:04.553Z,8.00
2022-09-06T22:36:32.964Z,9.30
2022-09-06T22:39:01.068Z,8.43
2022-09-06T22:41:32.656Z,9.13
2022-09-06T22:44:00.981Z,9.67
2022-09-06T22:46:29.889Z,8.00
2022-09-06T22:48:58.606Z,8.60
2022-09-06T22:51:27.160Z,5.03
2022-09-06T22:53:55.160Z,6.37
2022-09-06T22:56:23.241Z,5.03
2022-09-06T22:58:52.573Z,7.77
2022-09-06T23:01:20.666Z,3.97
2022-09-06T23:03:49.442Z,5.17
2022-09-06T23:06:17.931Z,6.43
2022-09-06T23:08:46.136Z,7.80
2022-09-06T23:11:16.776Z,9.20
2022-09-06T23:13:46.084Z,6.47
2022-09-06T23:16:17.438Z,5.67
2022-09-06T23:18:46.309Z,8.83
2022-09-06T23:21:16.944Z,6.30
2022-09-06T23:23:44.963Z,8.70
2022-09-06T23:26:15.712Z,6.77
2022-09-06T23:28:44.377Z,5.33
2022-09-06T23:31:13.908Z,6.60
2022-09-06T23:33:43.656Z,8.50
2022-09-06T23:36:14.725Z,6.40
2022-09-06T23:38:43.608Z,9.83
2022-09-06T23:41:13.275Z,6.63
2022-09-06T23:43:42.731Z,6.87
2022-09-06T23:46:12.099Z,8.67
2022-09-06T23:48:40.171Z,6.33
2022-09-06T23:51:10.012Z,5.83
2022-09-06T23:53:38.191Z,5.13
2022-09-06T23:56:11.035Z,5.90
2022-09-06T23:58:39.414Z,4.30
